createdAt,value
2018-10-07T00:00:11.106Z,92.50
2018-10-07T00:02:39.809Z,92.90
2018-10-07T00:05:08.525Z,92.50
2018-10-07T00:07:37.097Z,92.60
2018-10-07T00:10:05.790Z,92.50
2018-10-07T00:12:34.137Z,92.40
2018-10-07T00:15:04.267Z,92.40
2018-10-07T00:17:32.673Z,92.40
2018-10-07T00:20:01.511Z,92.20
2018-10-07T00:22:29.731Z,92.20
2018-10-07T00:24:58.390Z,92.10
2018-10-07T00:27:26.996Z,92.10
2018-10-07T00:29:55.661Z,91.90
2018-10-07T00:32:24.268Z,91.70
2018-10-07T00:34:53.898Z,91.80
2018-10-07T00:37:22.632Z,91.60
2018-10-07T00:39:51.249Z,91.40
2018-10-07T00:42:20.117Z,91.50
2018-10-07T00:44:48.627Z,91.50
2018-10-07T00:47:17.260Z,91.50
2018-10-07T00:49:45.792Z,91.40
2018-10-07T00:52:14.385Z,91.20
2018-10-07T00:54:43.324Z,91.10
2018-10-07T00:57:11.696Z,91.10
2018-10-07T00:59:40.432Z,91.10
2018-10-07T01:02:09.193Z,91.10
2018-10-07T01:04:37.817Z,91.10
2018-10-07T01:07:06.343Z,91.00
2018-10-07T01:09:34.952Z,90.90
2018-10-07T01:12:03.572Z,90.70
2018-10-07T01:14:32.387Z,90.60
2018-10-07T01:17:00.852Z,90.50
2018-10-07T01:19:29.399Z,90.30
2018-10-07T01:21:58.018Z,90.40
2018-10-07T01:24:26.567Z,90.20
2018-10-07T01:26:55.416Z,90.40
2018-10-07T01:29:24.057Z,90.20
2018-10-07T01:31:52.670Z,90.40
2018-10-07T01:34:21.256Z,89.80
2018-10-07T01:36:49.880Z,90.10
2018-10-07T01:39:18.456Z,90.20
2018-10-07T01:41:47.080Z,90.20
2018-10-07T01:44:15.625Z,90.20
2018-10-07T01:46:44.462Z,89.70
2018-10-07T01:49:13.232Z,89.40
2018-10-07T01:51:41.858Z,90.00
2018-10-07T01:54:10.485Z,89.90
2018-10-07T01:56:39.272Z,89.90
2018-10-07T01:59:08.138Z,89.60
2018-10-07T02:01:36.552Z,89.10
2018-10-07T02:04:05.432Z,88.60
2018-10-07T02:06:33.996Z,88.40
2018-10-07T02:09:02.661Z,89.00
2018-10-07T02:11:31.328Z,88.80
2018-10-07T02:14:00.082Z,88.00
2018-10-07T02:16:28.408Z,87.50
2018-10-07T02:18:57.057Z,87.20
2018-10-07T02:21:26.069Z,86.80
2018-10-07T02:23:54.572Z,87.10
2018-10-07T02:26:23.521Z,87.10
2018-10-07T02:28:51.780Z,87.10
2018-10-07T02:31:20.614Z,87.30
2018-10-07T02:33:49.215Z,87.30
2018-10-07T02:36:17.928Z,86.90
2018-10-07T02:38:46.601Z,87.10
2018-10-07T02:41:15.113Z,87.10
2018-10-07T02:43:43.634Z,87.10
2018-10-07T02:46:12.340Z,87.30
2018-10-07T02:48:40.893Z,86.80
2018-10-07T02:51:11.014Z,86.90
2018-10-07T02:53:39.309Z,87.20
2018-10-07T02:56:08.046Z,87.20
2018-10-07T02:58:36.821Z,88.00
2018-10-07T03:01:05.361Z,87.60
2018-10-07T03:03:34.159Z,87.30
2018-10-07T03:06:02.548Z,87.50
2018-10-07T03:08:31.345Z,87.70
2018-10-07T03:10:59.816Z,87.40
2018-10-07T03:13:28.268Z,87.40
2018-10-07T03:17:26.093Z,87.30
2018-10-07T03:19:54.632Z,87.60
2018-10-07T03:22:23.249Z,87.70
2018-10-07T03:24:51.680Z,87.60
2018-10-07T03:27:20.512Z,87.70
2018-10-07T03:29:49.197Z,87.80
2018-10-07T03:32:18.168Z,87.80
2018-10-07T03:34:46.580Z,87.60
2018-10-07T03:37:15.245Z,87.90
2018-10-07T03:39:43.781Z,88.40
2018-10-07T03:42:12.364Z,88.20
2018-10-07T03:44:40.882Z,88.30
2018-10-07T03:47:09.488Z,88.20
2018-10-07T03:49:38.577Z,88.20
2018-10-07T03:52:07.060Z,88.20
2018-10-07T03:54:35.652Z,88.20
2018-10-07T03:57:04.308Z,88.40
2018-10-07T03:59:33.102Z,88.50
2018-10-07T04:02:01.717Z,88.80
2018-10-07T04:04:30.348Z,89.00
2018-10-07T04:06:58.956Z,89.00
2018-10-07T04:09:27.473Z,89.20
2018-10-07T04:11:55.996Z,89.30
2018-10-07T04:14:24.621Z,89.30
2018-10-07T04:16:53.317Z,89.50
2018-10-07T04:19:21.953Z,89.80
2018-10-07T04:21:53.109Z,89.60
2018-10-07T04:24:21.309Z,90.00
2018-10-07T04:26:51.220Z,89.40
2018-10-07T04:29:19.608Z,90.00
2018-10-07T04:31:48.444Z,90.10
2018-10-07T04:34:17.044Z,90.00
2018-10-07T04:36:45.547Z,89.50
2018-10-07T04:39:14.395Z,89.50
2018-10-07T04:41:43.590Z,90.00
2018-10-07T04:44:12.628Z,90.10
2018-10-07T04:46:41.174Z,90.10
2018-10-07T04:49:09.705Z,90.20
2018-10-07T04:51:38.414Z,90.30
2018-10-07T04:54:07.089Z,90.30
2018-10-07T04:56:35.924Z,90.20
2018-10-07T04:59:04.626Z,90.30
2018-10-07T05:01:32.839Z,90.30
2018-10-07T05:04:01.540Z,90.40
2018-10-07T05:06:32.427Z,90.20
2018-10-07T05:09:02.789Z,90.30
2018-10-07T05:11:31.869Z,90.30
2018-10-07T05:14:00.589Z,90.90
2018-10-07T05:16:38.820Z,90.50
2018-10-07T05:19:07.616Z,90.40
2018-10-07T05:21:35.736Z,90.40
2018-10-07T05:24:04.558Z,90.60
2018-10-07T05:26:32.984Z,90.60
2018-10-07T05:29:01.741Z,90.50
2018-10-07T05:31:30.439Z,90.50
2018-10-07T05:33:58.892Z,90.50
2018-10-07T05:36:27.975Z,90.50
2018-10-07T05:38:57.090Z,90.30
2018-10-07T05:41:25.620Z,90.30
2018-10-07T05:43:54.100Z,90.20
2018-10-07T05:46:22.804Z,90.20
2018-10-07T05:48:51.236Z,90.20
2018-10-07T05:51:19.890Z,90.30
2018-10-07T05:53:48.628Z,90.60
2018-10-07T05:56:17.051Z,90.30
2018-10-07T05:58:45.752Z,90.30
2018-10-07T06:01:19.452Z,90.30
2018-10-07T06:04:00.493Z,90.30
2018-10-07T06:06:28.750Z,90.40
2018-10-07T06:08:57.737Z,90.40
2018-10-07T06:11:26.134Z,90.50
2018-10-07T06:13:54.853Z,90.50
2018-10-07T06:16:23.732Z,90.40
2018-10-07T06:18:52.027Z,90.70
2018-10-07T06:21:20.641Z,90.40
2018-10-07T06:23:49.130Z,90.80
2018-10-07T06:26:17.732Z,90.50
2018-10-07T06:28:46.703Z,90.50
2018-10-07T06:31:15.076Z,90.50
2018-10-07T06:33:43.671Z,90.70
2018-10-07T06:36:12.300Z,90.60
2018-10-07T06:38:41.035Z,90.70
2018-10-07T06:41:09.437Z,90.80
2018-10-07T06:43:38.245Z,90.80
2018-10-07T06:46:07.050Z,90.60
2018-10-07T06:48:35.579Z,90.90
2018-10-07T06:51:04.397Z,90.50
2018-10-07T06:53:32.724Z,90.70
2018-10-07T06:56:01.369Z,90.60
2018-10-07T06:58:29.989Z,90.50
2018-10-07T07:00:58.696Z,90.40
2018-10-07T07:03:27.317Z,90.50
2018-10-07T07:05:57.141Z,90.40
2018-10-07T07:08:25.394Z,90.40
2018-10-07T07:10:53.933Z,90.50
2018-10-07T07:14:47.110Z,90.20
2018-10-07T07:17:15.464Z,90.30
2018-10-07T07:19:44.365Z,90.50
2018-10-07T07:22:12.981Z,90.30
2018-10-07T07:24:41.513Z,90.40
2018-10-07T07:27:10.240Z,89.80
2018-10-07T07:29:38.673Z,89.40
2018-10-07T07:32:12.834Z,89.20
2018-10-07T07:34:41.903Z,89.00
2018-10-07T07:37:10.530Z,89.30
2018-10-07T07:39:39.246Z,89.10
2018-10-07T07:42:07.929Z,88.80
2018-10-07T07:44:36.536Z,88.60
2018-10-07T07:47:05.371Z,87.30
2018-10-07T07:49:34.076Z,87.60
2018-10-07T07:52:02.688Z,87.20
2018-10-07T07:54:31.244Z,87.10
2018-10-07T07:56:59.824Z,86.20
2018-10-07T07:59:28.345Z,86.50
2018-10-07T08:01:56.905Z,86.20
2018-10-07T08:04:25.446Z,86.50
2018-10-07T08:06:54.160Z,85.60
2018-10-07T08:09:22.782Z,86.30
2018-10-07T08:11:57.464Z,85.70
2018-10-07T08:14:26.300Z,85.40
2018-10-07T08:16:55.001Z,85.80
2018-10-07T08:19:24.040Z,84.20
2018-10-07T08:21:55.285Z,85.70
2018-10-07T08:24:25.115Z,84.60
2018-10-07T08:26:53.350Z,84.30
2018-10-07T08:29:22.090Z,85.50
2018-10-07T08:31:50.789Z,85.80
2018-10-07T08:34:19.396Z,86.10
2018-10-07T08:36:48.293Z,85.50
2018-10-07T08:39:20.728Z,85.90
2018-10-07T08:41:49.036Z,86.50
2018-10-07T08:44:17.548Z,86.00
2018-10-07T08:46:48.355Z,86.30
2018-10-07T08:49:16.973Z,84.60
2018-10-07T08:54:37.009Z,85.80
2018-10-07T08:57:05.285Z,81.30
2018-10-07T08:59:34.065Z,81.90
2018-10-07T09:02:02.647Z,83.00
2018-10-07T09:04:31.309Z,78.60
2018-10-07T09:07:00.186Z,76.50
2018-10-07T09:09:28.741Z,77.20
2018-10-07T09:11:57.405Z,73.10
2018-10-07T09:14:26.226Z,74.00
2018-10-07T09:16:55.120Z,73.00
2018-10-07T09:19:23.603Z,73.00
2018-10-07T09:21:52.228Z,70.70
2018-10-07T09:24:21.004Z,72.40
2018-10-07T09:26:49.703Z,72.50
2018-10-07T09:29:18.238Z,71.30
2018-10-07T09:31:46.869Z,69.50
2018-10-07T09:34:15.592Z,71.40
2018-10-07T09:36:44.258Z,70.90
2018-10-07T09:39:13.999Z,67.10
2018-10-07T09:41:42.456Z,69.90
2018-10-07T09:44:11.009Z,69.70
2018-10-07T09:46:42.761Z,67.20
2018-10-07T09:49:11.221Z,65.70
2018-10-07T09:51:39.893Z,69.10
2018-10-07T09:54:08.369Z,67.20
2018-10-07T09:56:37.004Z,67.60
2018-10-07T10:00:35.936Z,69.10
2018-10-07T10:03:04.284Z,67.40
2018-10-07T10:05:33.309Z,64.90
2018-10-07T10:08:08.127Z,63.00
2018-10-07T10:10:36.472Z,67.20
2018-10-07T10:13:06.258Z,66.60
2018-10-07T10:15:34.555Z,66.00
2018-10-07T10:18:06.284Z,67.50
2018-10-07T10:21:43.768Z,64.20
2018-10-07T10:26:34.740Z,64.70
2018-10-07T10:29:17.242Z,65.50
2018-10-07T10:31:58.429Z,64.20
2018-10-07T10:35:42.342Z,62.50
2018-10-07T10:38:25.008Z,65.50
2018-10-07T10:41:00.529Z,62.90
2018-10-07T10:43:42.665Z,64.50
2018-10-07T10:46:13.992Z,65.00
2018-10-07T10:48:55.837Z,64.80
2018-10-07T10:51:36.469Z,63.90
2018-10-07T10:55:24.817Z,63.30
2018-10-07T10:57:57.041Z,61.00
2018-10-07T11:00:59.306Z,64.00
2018-10-07T11:03:46.380Z,65.60
2018-10-07T11:06:22.177Z,63.70
2018-10-07T11:09:18.313Z,65.20
2018-10-07T11:11:55.457Z,65.00
2018-10-07T11:14:36.621Z,62.80
2018-10-07T11:20:07.182Z,65.40
2018-10-07T11:22:48.481Z,64.00
2018-10-07T11:33:51.087Z,63.20
2018-10-07T11:36:31.954Z,62.70
2018-10-07T11:39:15.053Z,61.00
2018-10-07T11:42:21.300Z,64.10
2018-10-07T11:44:58.041Z,66.50
2018-10-07T11:47:37.310Z,60.60
2018-10-07T11:50:15.809Z,65.60
2018-10-07T11:52:57.654Z,63.50
2018-10-07T11:55:26.152Z,65.90
2018-10-07T11:57:54.668Z,63.10
2018-10-07T12:00:23.409Z,63.60
2018-10-07T12:02:52.068Z,63.50
2018-10-07T12:05:26.065Z,64.00
2018-10-07T12:10:29.607Z,66.00
2018-10-07T12:13:05.881Z,63.60
2018-10-07T12:20:43.767Z,66.20
2018-10-07T12:23:19.044Z,63.50
2018-10-07T12:25:48.410Z,63.40
2018-10-07T12:28:16.755Z,63.50
2018-10-07T12:30:45.285Z,62.30
2018-10-07T12:33:14.016Z,65.20
2018-10-07T12:35:42.688Z,62.00
2018-10-07T12:38:11.260Z,65.90
2018-10-07T12:40:39.761Z,63.50
2018-10-07T12:43:08.749Z,65.00
2018-10-07T12:45:42.833Z,63.50
2018-10-07T12:48:11.929Z,63.30
2018-10-07T12:50:40.770Z,63.40
2018-10-07T12:53:09.597Z,62.70
2018-10-07T12:55:38.217Z,64.90
2018-10-07T12:58:06.780Z,65.90
2018-10-07T13:00:36.601Z,65.10
2018-10-07T13:03:04.965Z,65.70
2018-10-07T13:05:33.544Z,64.50
2018-10-07T13:08:02.101Z,63.30
2018-10-07T13:10:30.759Z,64.00
2018-10-07T13:12:59.285Z,64.30
2018-10-07T13:15:27.936Z,65.30
2018-10-07T13:17:56.663Z,64.20
2018-10-07T13:20:25.348Z,61.70
2018-10-07T13:22:54.889Z,63.10
2018-10-07T13:25:23.515Z,63.40
2018-10-07T13:27:52.740Z,64.00
2018-10-07T13:30:21.878Z,62.80
2018-10-07T13:32:50.522Z,63.80
2018-10-07T13:35:19.050Z,64.20
2018-10-07T13:37:47.953Z,63.90
2018-10-07T13:40:16.477Z,62.40
2018-10-07T13:42:45.125Z,62.60
2018-10-07T13:45:13.642Z,64.30
2018-10-07T13:47:42.411Z,63.30
2018-10-07T13:50:11.082Z,63.00
2018-10-07T13:52:39.645Z,62.80
2018-10-07T13:55:08.381Z,63.60
2018-10-07T13:57:49.608Z,63.40
2018-10-07T14:00:17.934Z,63.60
2018-10-07T14:02:46.503Z,63.20
2018-10-07T14:05:15.025Z,63.30
2018-10-07T14:07:43.724Z,60.90
2018-10-07T14:10:13.262Z,61.90
2018-10-07T14:12:41.908Z,62.30
2018-10-07T14:15:11.669Z,63.80
2018-10-07T14:17:40.342Z,64.20
2018-10-07T14:20:11.465Z,63.30
2018-10-07T14:22:39.760Z,62.30
2018-10-07T14:25:08.312Z,62.30
2018-10-07T14:30:31.444Z,61.90
2018-10-07T14:33:01.100Z,65.40
2018-10-07T14:35:30.028Z,63.50
2018-10-07T14:37:58.340Z,63.40
2018-10-07T14:40:27.068Z,63.30
2018-10-07T14:42:55.688Z,65.40
2018-10-07T14:45:25.433Z,64.10
2018-10-07T14:47:54.133Z,64.80
2018-10-07T14:50:27.142Z,62.00
2018-10-07T14:52:55.398Z,62.70
2018-10-07T14:55:25.062Z,65.60
2018-10-07T14:57:53.796Z,63.40
2018-10-07T15:00:23.469Z,63.50
2018-10-07T15:02:52.659Z,64.30
2018-10-07T15:05:21.182Z,64.00
2018-10-07T15:07:49.808Z,63.30
2018-10-07T15:10:18.355Z,63.90
2018-10-07T15:12:46.930Z,65.40
2018-10-07T15:15:18.380Z,65.00
2018-10-07T15:17:46.966Z,65.90
2018-10-07T15:20:16.604Z,67.10
2018-10-07T15:22:45.274Z,66.40
2018-10-07T15:25:13.980Z,63.00
2018-10-07T15:27:42.644Z,65.10
2018-10-07T15:30:11.428Z,65.40
2018-10-07T15:32:40.229Z,66.10
2018-10-07T15:35:08.679Z,65.40
2018-10-07T15:37:37.505Z,66.20
2018-10-07T15:40:06.374Z,67.30
2018-10-07T15:42:34.913Z,67.50
2018-10-07T15:45:03.732Z,67.00
2018-10-07T15:47:32.673Z,67.90
2018-10-07T15:50:01.383Z,66.10
2018-10-07T15:52:30.046Z,68.20
2018-10-07T15:54:58.617Z,67.40
2018-10-07T15:57:27.244Z,67.70
2018-10-07T15:59:55.852Z,68.80
2018-10-07T16:02:24.690Z,69.00
2018-10-07T16:04:53.280Z,69.00
2018-10-07T16:07:22.056Z,69.90
2018-10-07T16:09:50.571Z,70.30
2018-10-07T16:12:21.587Z,69.80
2018-10-07T16:14:50.069Z,69.60
2018-10-07T16:17:18.690Z,69.10
2018-10-07T16:19:47.341Z,69.60
2018-10-07T16:22:15.861Z,69.30
2018-10-07T16:24:44.501Z,69.10
2018-10-07T16:27:13.028Z,69.90
2018-10-07T16:29:41.630Z,69.90
2018-10-07T16:32:10.588Z,70.50
2018-10-07T16:34:40.576Z,70.60
2018-10-07T16:37:09.120Z,70.80
2018-10-07T16:39:44.107Z,70.80
2018-10-07T16:42:13.269Z,71.10
2018-10-07T16:44:44.175Z,71.30
2018-10-07T16:47:15.588Z,71.50
2018-10-07T16:52:30.062Z,71.80
2018-10-07T16:54:58.493Z,72.10
2018-10-07T16:57:27.546Z,72.20
2018-10-07T16:59:56.741Z,72.60
2018-10-07T17:02:25.673Z,73.70
2018-10-07T17:04:54.826Z,73.80
2018-10-07T17:07:23.599Z,73.70
2018-10-07T17:09:52.521Z,73.10
2018-10-07T17:12:21.156Z,73.20
2018-10-07T17:14:49.841Z,73.60
2018-10-07T17:17:18.380Z,73.50
2018-10-07T17:19:46.913Z,73.60
2018-10-07T17:22:16.615Z,74.00
2018-10-07T17:24:45.429Z,73.90
2018-10-07T17:27:14.067Z,74.50
2018-10-07T17:29:43.792Z,74.80
2018-10-07T17:32:12.338Z,74.50
2018-10-07T17:34:41.054Z,74.40
2018-10-07T17:37:09.791Z,75.10
2018-10-07T17:39:38.405Z,75.00
2018-10-07T17:42:10.404Z,75.00
2018-10-07T17:44:38.923Z,74.90
2018-10-07T17:47:07.674Z,74.80
2018-10-07T17:49:36.433Z,74.80
2018-10-07T17:52:06.157Z,74.80
2018-10-07T17:54:34.692Z,75.00
2018-10-07T17:57:03.206Z,75.00
2018-10-07T18:02:25.487Z,75.20
2018-10-07T18:04:54.773Z,75.00
2018-10-07T18:07:30.041Z,75.20
2018-10-07T18:09:59.056Z,75.30
2018-10-07T18:15:16.201Z,75.30
2018-10-07T18:17:45.602Z,75.50
2018-10-07T18:20:13.978Z,75.60
2018-10-07T18:22:42.526Z,75.60
2018-10-07T18:25:11.067Z,75.70
2018-10-07T18:27:40.398Z,75.80
2018-10-07T18:30:09.459Z,76.30
2018-10-07T18:32:38.299Z,76.60
2018-10-07T18:35:06.741Z,75.70
2018-10-07T18:37:36.898Z,76.00
2018-10-07T18:40:05.690Z,75.70
2018-10-07T18:42:34.201Z,75.80
2018-10-07T18:45:02.572Z,75.60
2018-10-07T18:47:31.312Z,76.00
2018-10-07T18:50:00.211Z,76.00
2018-10-07T18:52:31.932Z,76.30
2018-10-07T18:55:00.602Z,76.10
2018-10-07T18:57:28.937Z,76.20
2018-10-07T18:59:57.733Z,76.10
2018-10-07T19:02:26.424Z,76.50
2018-10-07T19:04:55.258Z,76.40
2018-10-07T19:07:23.648Z,76.50
2018-10-07T19:09:52.223Z,76.50
2018-10-07T19:12:21.011Z,76.60
2018-10-07T19:14:49.593Z,76.60
2018-10-07T19:17:18.097Z,76.80
2018-10-07T19:19:47.773Z,77.10
2018-10-07T19:22:16.227Z,76.80
2018-10-07T19:24:44.879Z,76.70
2018-10-07T19:27:13.225Z,76.80
2018-10-07T19:29:42.273Z,76.80
2018-10-07T19:32:10.733Z,76.50
2018-10-07T19:34:40.205Z,76.80
2018-10-07T19:37:08.941Z,76.70
2018-10-07T19:39:37.728Z,76.70
2018-10-07T19:42:06.295Z,76.50
2018-10-07T19:44:34.938Z,76.70
2018-10-07T19:47:06.615Z,76.60
2018-10-07T19:49:35.149Z,76.50
2018-10-07T19:52:04.961Z,76.60
2018-10-07T19:54:33.284Z,77.00
2018-10-07T19:57:02.045Z,76.90
2018-10-07T19:59:30.959Z,78.70
2018-10-07T20:01:59.426Z,77.70
2018-10-07T20:04:27.977Z,77.80
2018-10-07T20:06:59.368Z,77.00
2018-10-07T20:09:34.481Z,77.00
2018-10-07T20:12:04.202Z,77.50
2018-10-07T20:14:38.181Z,77.50
2018-10-07T20:17:18.105Z,77.60
2018-10-07T20:19:48.507Z,77.30
2018-10-07T20:22:18.131Z,77.90
2018-10-07T20:24:46.353Z,77.60
2018-10-07T20:27:18.221Z,77.80
2018-10-07T20:29:46.932Z,77.20
2018-10-07T20:32:18.566Z,77.30
2018-10-07T20:34:47.108Z,77.80
2018-10-07T20:37:15.827Z,78.10
2018-10-07T20:39:44.314Z,78.80
2018-10-07T20:43:38.386Z,77.50
2018-10-07T20:46:06.716Z,78.10
2018-10-07T20:48:36.826Z,78.30
2018-10-07T20:51:05.349Z,78.10
2018-10-07T20:53:34.882Z,77.70
2018-10-07T20:56:04.661Z,77.80
2018-10-07T20:58:33.004Z,77.60
2018-10-07T21:01:01.566Z,77.80
2018-10-07T21:03:33.355Z,77.80
2018-10-07T21:06:05.169Z,77.80
2018-10-07T21:08:33.546Z,78.00
2018-10-07T21:11:02.293Z,77.70
2018-10-07T21:13:36.874Z,77.80
2018-10-07T21:16:05.600Z,78.10
2018-10-07T21:18:34.674Z,78.00
2018-10-07T21:21:02.896Z,78.10
2018-10-07T21:23:31.954Z,78.40
2018-10-07T21:26:00.552Z,78.50
2018-10-07T21:28:32.596Z,78.00
2018-10-07T21:31:01.781Z,78.10
2018-10-07T21:33:30.201Z,78.60
2018-10-07T21:35:58.754Z,78.30
2018-10-07T21:38:28.484Z,78.30
2018-10-07T21:40:57.476Z,78.60
2018-10-07T21:43:28.912Z,78.30
2018-10-07T21:45:57.567Z,78.10
2018-10-07T21:48:26.281Z,78.00
2018-10-07T21:50:54.979Z,78.10
2018-10-07T21:53:23.601Z,78.00
2018-10-07T21:55:52.451Z,78.20
2018-10-07T21:58:21.546Z,78.40
2018-10-07T22:00:49.773Z,78.70
2018-10-07T22:03:18.469Z,78.00
2018-10-07T22:05:47.011Z,78.00
2018-10-07T22:08:15.620Z,78.20
2018-10-07T22:10:44.138Z,78.40
2018-10-07T22:13:12.953Z,78.40
2018-10-07T22:15:41.524Z,78.50
2018-10-07T22:18:11.187Z,78.80
2018-10-07T22:20:40.681Z,78.60
2018-10-07T22:23:09.201Z,79.60
2018-10-07T22:25:37.831Z,78.20
2018-10-07T22:28:06.932Z,78.90
2018-10-07T22:30:36.209Z,78.00
2018-10-07T22:33:04.837Z,78.00
2018-10-07T22:35:33.569Z,78.20
2018-10-07T22:38:02.345Z,79.10
2018-10-07T22:40:32.005Z,80.00
2018-10-07T22:43:00.936Z,78.80
2018-10-07T22:45:29.272Z,78.50
2018-10-07T22:47:57.805Z,79.00
2018-10-07T22:50:26.311Z,78.20
2018-10-07T22:52:55.153Z,78.70
2018-10-07T22:55:24.057Z,78.60
2018-10-07T22:57:52.573Z,78.90
2018-10-07T23:00:21.135Z,78.80
2018-10-07T23:02:49.650Z,80.70
2018-10-07T23:05:19.550Z,79.10
2018-10-07T23:07:47.753Z,81.10
2018-10-07T23:10:16.268Z,79.30
2018-10-07T23:12:45.097Z,79.60
2018-10-07T23:15:13.792Z,79.30
2018-10-07T23:17:42.597Z,78.90
2018-10-07T23:20:10.971Z,78.70
2018-10-07T23:22:39.414Z,79.10
2018-10-07T23:25:08.025Z,80.40
2018-10-07T23:27:36.745Z,79.60
2018-10-07T23:30:05.547Z,79.10
2018-10-07T23:32:33.973Z,81.00
2018-10-07T23:35:02.853Z,80.20
2018-10-07T23:37:31.381Z,80.10
2018-10-07T23:39:59.841Z,79.60
2018-10-07T23:42:28.560Z,79.50
2018-10-07T23:44:57.266Z,79.80
2018-10-07T23:47:25.969Z,79.60
2018-10-07T23:49:54.918Z,80.80
2018-10-07T23:52:23.357Z,79.50
2018-10-07T23:54:51.882Z,79.80
2018-10-07T23:57:20.418Z,79.70
2018-10-07T23:59:49.358Z,79.10
